Central Illinois Regional Airport at Bloomington-normal Bloomington-normal US
ICAO: KBMI
IATA: BMI
Category: Large
Scheduled Services: Yes

Elevation: 871 ft
TransAlt. 18000 ft.

Airport Communications:
PEORIA APP/DEP:118.05
ASOS:135.35
ATIS:135.35
CTAF:124.6
GND:121.65
KANKAKEE RDO:108.2
BLOOMINGTON TWR:124.6
UNICOM:122.95

KBMI Zoom In..

If you have problems with the map follow the link
https://www.worldairports.se/pages/airport.php?
ICAO=KBMI

Runways:

(A) RW 02 length 8000 ft width 150 ft
ILS 111.90 / hdg 18

(B) RW 11 length 6525 ft width 150 ft
---- / hdg 108

(C) RW 20 length 8000 ft width 150 ft
ILS 111.90 / hdg 198

(D) RW 29 length 6525 ft width 150 ft
ILS 108.30 / hdg 288

Location; KBMI
Day. 14 / Time. 18.31 Zulu
* Altimeter: 29.78
* Temperature: -01° c. -30.2°f.
* Wind from: 300° Speed 13 kn.
Dewpoint: -02° c.
Visibility: 7 Statute Miles.
Clouds: Overcast 600 ft.

KBMI 141831Z 30013KT 7SM OVC006 M01/M02 A2978 RMK AO2


Wind From 300°
Speed 13 kn.

 
 
jpsmedia worldairports.se 2019   terms of use